LHDC Airport Information

Runway Information
Runway 05L Length 8087 ft width 230 ft
Elevation 0 ft Threshold 0 ft Heading 48
Runway 23R Length 8087 ft Width 230 ft
Elevation 0 ft Threshold 0 ft Heading 228
Runway 05R Length 8196 ft width 131 ft
Elevation 355 ft Threshold 0 ft Heading 48
Runway 23L Length 8196 ft Width 131 ft
Elevation 359 ft Threshold 979 ft Heading 228
Airport Frequencies
Type AFIS Name INFO Frequency 125.9 MHZ
Type INFO Name BUDAPEST I Frequency 133.3 MHZ
Airport Navaids
Type NDB Name Debrecen Frequency 326 KHZ
Type NDB Name Debrecen Frequency 295 KHZ
Airport Weather Information & NOTAM
ADDS - METARS form results

(0545 UTC 24 January 2021)
Data provider http://aviationweather.gov/metar/data/
 
METAR text: LHDC 240515Z AUTO 18013KT CAVOK 07/06 Q0997
Conditions at: LHDC (DEBRECEN AIRPORT, HU) observed 0515 UTC 24 January 2021
Temperature: 7.0°C (45°F)
Dewpoint: 6.0°C (43°F) [RH = 93%]
Pressure (altimeter): 29.44 inches Hg (997.0 mb)
Winds: from the S (180 degrees) at 15 MPH (13 knots; 6.7 m/s)
Visibility: 6 or more miles (10+ km)
Ceiling: ceiling and visibility are OK
Clouds: unknown
Weather: no significant weather observed at this time